sensor_id;sensor_type;location;lat;lon;timestamp;temperature;humidity
7360;DHT22;3720;48.274;7.796;2022-10-04T00:00:09;9.10;99.90
7360;DHT22;3720;48.274;7.796;2022-10-04T00:02:45;9.00;99.90
7360;DHT22;3720;48.274;7.796;2022-10-04T00:05:23;8.90;99.90
7360;DHT22;3720;48.274;7.796;2022-10-04T00:08:12;8.80;99.90
7360;DHT22;3720;48.274;7.796;2022-10-04T00:10:49;8.70;99.90
7360;DHT22;3720;48.274;7.796;2022-10-04T00:13:31;8.70;99.90
7360;DHT22;3720;48.274;7.796;2022-10-04T00:16:05;8.70;99.90
7360;DHT22;3720;48.274;7.796;2022-10-04T00:18:39;8.70;99.90
7360;DHT22;3720;48.274;7.796;2022-10-04T00:21:13;8.80;99.90
7360;DHT22;3720;48.274;7.796;2022-10-04T00:23:46;8.90;99.90
7360;DHT22;3720;48.274;7.796;2022-10-04T00:29:41;8.90;99.90
7360;DHT22;3720;48.274;7.796;2022-10-04T00:32:29;8.90;99.90
7360;DHT22;3720;48.274;7.796;2022-10-04T00:35:00;9.00;99.90
7360;DHT22;3720;48.274;7.796;2022-10-04T00:37:54;8.90;99.90
7360;DHT22;3720;48.274;7.796;2022-10-04T00:40:30;9.00;99.90
7360;DHT22;3720;48.274;7.796;2022-10-04T00:43:05;9.00;99.90
7360;DHT22;3720;48.274;7.796;2022-10-04T00:45:40;8.90;99.90
7360;DHT22;3720;48.274;7.796;2022-10-04T00:48:38;8.90;99.90
7360;DHT22;3720;48.274;7.796;2022-10-04T00:51:18;8.80;99.90
7360;DHT22;3720;48.274;7.796;2022-10-04T00:54:00;8.70;99.90
7360;DHT22;3720;48.274;7.796;2022-10-04T00:56:41;8.60;99.90
7360;DHT22;3720;48.274;7.796;2022-10-04T00:59:33;8.50;99.90
7360;DHT22;3720;48.274;7.796;2022-10-04T01:02:13;8.30;99.90
7360;DHT22;3720;48.274;7.796;2022-10-04T01:04:50;8.30;99.90
7360;DHT22;3720;48.274;7.796;2022-10-04T01:07:26;8.30;99.90
7360;DHT22;3720;48.274;7.796;2022-10-04T01:10:03;8.20;99.90
7360;DHT22;3720;48.274;7.796;2022-10-04T01:12:43;8.20;99.90
7360;DHT22;3720;48.274;7.796;2022-10-04T01:15:23;8.30;99.90
7360;DHT22;3720;48.274;7.796;2022-10-04T01:18:10;8.30;99.90
7360;DHT22;3720;48.274;7.796;2022-10-04T01:20:52;8.30;99.90
7360;DHT22;3720;48.274;7.796;2022-10-04T01:23:41;8.20;99.90
7360;DHT22;3720;48.274;7.796;2022-10-04T01:26:39;8.30;99.90
7360;DHT22;3720;48.274;7.796;2022-10-04T01:29:14;8.30;99.90
7360;DHT22;3720;48.274;7.796;2022-10-04T01:31:48;8.30;99.90
7360;DHT22;3720;48.274;7.796;2022-10-04T01:34:22;8.30;99.90
7360;DHT22;3720;48.274;7.796;2022-10-04T01:36:55;8.30;99.90
7360;DHT22;3720;48.274;7.796;2022-10-04T01:39:30;8.30;99.90
7360;DHT22;3720;48.274;7.796;2022-10-04T01:42:08;8.30;99.90
7360;DHT22;3720;48.274;7.796;2022-10-04T01:44:44;8.30;99.90
7360;DHT22;3720;48.274;7.796;2022-10-04T01:47:22;8.30;99.90
7360;DHT22;3720;48.274;7.796;2022-10-04T01:49:55;8.20;99.90
7360;DHT22;3720;48.274;7.796;2022-10-04T01:52:32;8.20;99.90
7360;DHT22;3720;48.274;7.796;2022-10-04T01:55:13;8.20;99.90
7360;DHT22;3720;48.274;7.796;2022-10-04T01:57:48;8.20;99.90
7360;DHT22;3720;48.274;7.796;2022-10-04T02:00:23;8.20;99.90
7360;DHT22;3720;48.274;7.796;2022-10-04T02:02:59;8.20;99.90
7360;DHT22;3720;48.274;7.796;2022-10-04T02:05:35;8.10;99.90
7360;DHT22;3720;48.274;7.796;2022-10-04T02:08:10;8.10;99.90
7360;DHT22;3720;48.274;7.796;2022-10-04T02:10:48;8.20;99.90
7360;DHT22;3720;48.274;7.796;2022-10-04T02:13:23;8.20;99.90
7360;DHT22;3720;48.274;7.796;2022-10-04T02:16:00;8.20;99.90
7360;DHT22;3720;48.274;7.796;2022-10-04T02:18:36;8.20;99.90
7360;DHT22;3720;48.274;7.796;2022-10-04T02:21:10;8.20;99.90
7360;DHT22;3720;48.274;7.796;2022-10-04T02:23:43;8.10;99.90
7360;DHT22;3720;48.274;7.796;2022-10-04T02:26:17;8.10;99.90
7360;DHT22;3720;48.274;7.796;2022-10-04T02:28:50;8.10;99.90
7360;DHT22;3720;48.274;7.796;2022-10-04T02:31:23;8.10;99.90
7360;DHT22;3720;48.274;7.796;2022-10-04T02:34:13;8.10;99.90
7360;DHT22;3720;48.274;7.796;2022-10-04T02:36:48;8.10;99.90
7360;DHT22;3720;48.274;7.796;2022-10-04T02:39:24;8.10;99.90
7360;DHT22;3720;48.274;7.796;2022-10-04T02:42:01;8.10;99.90
7360;DHT22;3720;48.274;7.796;2022-10-04T02:44:38;8.20;99.90
7360;DHT22;3720;48.274;7.796;2022-10-04T02:47:14;8.20;99.90
7360;DHT22;3720;48.274;7.796;2022-10-04T02:49:49;8.20;99.90
7360;DHT22;3720;48.274;7.796;2022-10-04T02:52:26;8.30;99.90
7360;DHT22;3720;48.274;7.796;2022-10-04T02:55:03;8.20;99.90
7360;DHT22;3720;48.274;7.796;2022-10-04T02:57:40;8.20;99.90
7360;DHT22;3720;48.274;7.796;2022-10-04T03:00:16;8.20;99.90
7360;DHT22;3720;48.274;7.796;2022-10-04T03:03:14;8.10;99.90
7360;DHT22;3720;48.274;7.796;2022-10-04T03:05:55;8.10;99.90
7360;DHT22;3720;48.274;7.796;2022-10-04T03:08:30;8.10;99.90
7360;DHT22;3720;48.274;7.796;2022-10-04T03:11:04;8.10;99.90
7360;DHT22;3720;48.274;7.796;2022-10-04T03:13:38;8.00;99.90
7360;DHT22;3720;48.274;7.796;2022-10-04T03:16:11;8.00;99.90
7360;DHT22;3720;48.274;7.796;2022-10-04T03:18:44;7.90;99.90
7360;DHT22;3720;48.274;7.796;2022-10-04T03:21:18;7.90;99.90
7360;DHT22;3720;48.274;7.796;2022-10-04T03:23:51;7.90;99.90
7360;DHT22;3720;48.274;7.796;2022-10-04T03:26:28;7.90;99.90
7360;DHT22;3720;48.274;7.796;2022-10-04T03:29:05;7.90;99.90
7360;DHT22;3720;48.274;7.796;2022-10-04T03:31:40;7.80;99.90
7360;DHT22;3720;48.274;7.796;2022-10-04T03:34:15;7.80;99.90
7360;DHT22;3720;48.274;7.796;2022-10-04T03:36:50;7.70;99.90
7360;DHT22;3720;48.274;7.796;2022-10-04T03:39:27;7.70;99.90
7360;DHT22;3720;48.274;7.796;2022-10-04T03:42:03;7.60;99.90
7360;DHT22;3720;48.274;7.796;2022-10-04T03:44:37;7.60;99.90
7360;DHT22;3720;48.274;7.796;2022-10-04T03:47:13;7.50;99.90
7360;DHT22;3720;48.274;7.796;2022-10-04T03:49:47;7.50;99.90
7360;DHT22;3720;48.274;7.796;2022-10-04T03:52:21;7.50;99.90
7360;DHT22;3720;48.274;7.796;2022-10-04T03:54:58;7.50;99.90
7360;DHT22;3720;48.274;7.796;2022-10-04T03:57:32;7.50;99.90
7360;DHT22;3720;48.274;7.796;2022-10-04T04:00:07;7.50;99.90
7360;DHT22;3720;48.274;7.796;2022-10-04T04:02:42;7.50;99.90
7360;DHT22;3720;48.274;7.796;2022-10-04T04:05:18;7.40;99.90
7360;DHT22;3720;48.274;7.796;2022-10-04T04:07:59;7.40;99.90
7360;DHT22;3720;48.274;7.796;2022-10-04T04:10:37;7.40;99.90
7360;DHT22;3720;48.274;7.796;2022-10-04T04:13:17;7.40;99.90
7360;DHT22;3720;48.274;7.796;2022-10-04T04:15:54;7.40;99.90
7360;DHT22;3720;48.274;7.796;2022-10-04T04:18:29;7.40;99.90
7360;DHT22;3720;48.274;7.796;2022-10-04T04:21:03;7.30;99.90
7360;DHT22;3720;48.274;7.796;2022-10-04T04:23:39;7.20;99.90
7360;DHT22;3720;48.274;7.796;2022-10-04T04:26:17;7.20;99.90
7360;DHT22;3720;48.274;7.796;2022-10-04T04:28:54;7.20;99.90
7360;DHT22;3720;48.274;7.796;2022-10-04T04:31:32;7.20;99.90
7360;DHT22;3720;48.274;7.796;2022-10-04T04:34:16;7.30;99.90
7360;DHT22;3720;48.274;7.796;2022-10-04T04:36:50;7.30;99.90
7360;DHT22;3720;48.274;7.796;2022-10-04T04:39:26;7.30;99.90
7360;DHT22;3720;48.274;7.796;2022-10-04T04:42:14;7.30;99.90
7360;DHT22;3720;48.274;7.796;2022-10-04T04:44:49;7.30;99.90
7360;DHT22;3720;48.274;7.796;2022-10-04T04:47:31;7.30;99.90
7360;DHT22;3720;48.274;7.796;2022-10-04T04:50:07;7.30;99.90
7360;DHT22;3720;48.274;7.796;2022-10-04T04:52:45;7.30;99.90
7360;DHT22;3720;48.274;7.796;2022-10-04T04:55:21;7.30;99.90
7360;DHT22;3720;48.274;7.796;2022-10-04T04:57:55;7.30;99.90
7360;DHT22;3720;48.274;7.796;2022-10-04T05:00:30;7.40;99.90
7360;DHT22;3720;48.274;7.796;2022-10-04T05:03:05;7.30;99.90
7360;DHT22;3720;48.274;7.796;2022-10-04T05:05:37;7.40;99.90
7360;DHT22;3720;48.274;7.796;2022-10-04T05:08:15;7.30;99.90
7360;DHT22;3720;48.274;7.796;2022-10-04T05:10:51;7.30;99.90
7360;DHT22;3720;48.274;7.796;2022-10-04T05:13:33;7.30;99.90
7360;DHT22;3720;48.274;7.796;2022-10-04T05:16:11;7.40;99.90
7360;DHT22;3720;48.274;7.796;2022-10-04T05:18:46;7.40;99.90
7360;DHT22;3720;48.274;7.796;2022-10-04T05:21:22;7.40;99.90
7360;DHT22;3720;48.274;7.796;2022-10-04T05:23:55;7.40;99.90
7360;DHT22;3720;48.274;7.796;2022-10-04T05:26:29;7.40;99.90
7360;DHT22;3720;48.274;7.796;2022-10-04T05:29:08;7.50;99.90
7360;DHT22;3720;48.274;7.796;2022-10-04T05:31:46;7.50;99.90
7360;DHT22;3720;48.274;7.796;2022-10-04T05:34:24;7.50;99.90
7360;DHT22;3720;48.274;7.796;2022-10-04T05:37:16;7.60;99.90
7360;DHT22;3720;48.274;7.796;2022-10-04T05:40:12;7.60;99.90
7360;DHT22;3720;48.274;7.796;2022-10-04T05:42:46;7.70;99.90
7360;DHT22;3720;48.274;7.796;2022-10-04T05:45:21;7.70;99.90
7360;DHT22;3720;48.274;7.796;2022-10-04T05:47:56;7.70;99.90
7360;DHT22;3720;48.274;7.796;2022-10-04T05:50:33;7.70;99.90
7360;DHT22;3720;48.274;7.796;2022-10-04T05:53:19;7.70;99.90
7360;DHT22;3720;48.274;7.796;2022-10-04T05:55:58;7.70;99.90
7360;DHT22;3720;48.274;7.796;2022-10-04T05:58:54;7.80;99.90
7360;DHT22;3720;48.274;7.796;2022-10-04T06:01:38;7.90;99.90
7360;DHT22;3720;48.274;7.796;2022-10-04T06:04:39;7.90;99.90
7360;DHT22;3720;48.274;7.796;2022-10-04T06:07:21;7.90;99.90
7360;DHT22;3720;48.274;7.796;2022-10-04T06:10:16;8.00;99.90
7360;DHT22;3720;48.274;7.796;2022-10-04T06:12:54;8.00;99.90
7360;DHT22;3720;48.274;7.796;2022-10-04T06:15:55;8.00;99.90
7360;DHT22;3720;48.274;7.796;2022-10-04T06:18:42;8.10;99.90
7360;DHT22;3720;48.274;7.796;2022-10-04T06:21:19;8.10;99.90
7360;DHT22;3720;48.274;7.796;2022-10-04T06:23:57;8.20;99.90
7360;DHT22;3720;48.274;7.796;2022-10-04T06:26:36;8.30;99.90
7360;DHT22;3720;48.274;7.796;2022-10-04T06:29:13;8.30;99.90
7360;DHT22;3720;48.274;7.796;2022-10-04T06:32:10;8.40;99.90
7360;DHT22;3720;48.274;7.796;2022-10-04T06:38:10;8.50;99.90
7360;DHT22;3720;48.274;7.796;2022-10-04T06:41:06;8.50;99.90
7360;DHT22;3720;48.274;7.796;2022-10-04T06:43:53;8.50;99.90
7360;DHT22;3720;48.274;7.796;2022-10-04T06:46:33;8.50;99.90
7360;DHT22;3720;48.274;7.796;2022-10-04T06:49:24;8.60;99.90
7360;DHT22;3720;48.274;7.796;2022-10-04T06:55:32;8.70;99.90
7360;DHT22;3720;48.274;7.796;2022-10-04T06:58:43;8.80;99.90
7360;DHT22;3720;48.274;7.796;2022-10-04T07:01:27;8.80;99.90
7360;DHT22;3720;48.274;7.796;2022-10-04T07:04:10;8.90;99.90
7360;DHT22;3720;48.274;7.796;2022-10-04T07:06:51;8.90;99.90
7360;DHT22;3720;48.274;7.796;2022-10-04T07:09:46;8.90;99.90
7360;DHT22;3720;48.274;7.796;2022-10-04T07:12:19;9.00;99.90
7360;DHT22;3720;48.274;7.796;2022-10-04T07:14:56;9.10;99.90
7360;DHT22;3720;48.274;7.796;2022-10-04T07:17:36;9.20;99.90
7360;DHT22;3720;48.274;7.796;2022-10-04T07:20:19;9.30;99.90
7360;DHT22;3720;48.274;7.796;2022-10-04T07:22:56;9.30;99.90
7360;DHT22;3720;48.274;7.796;2022-10-04T07:25:33;9.30;99.90
7360;DHT22;3720;48.274;7.796;2022-10-04T07:28:13;9.40;99.90
7360;DHT22;3720;48.274;7.796;2022-10-04T07:31:11;9.50;99.90
7360;DHT22;3720;48.274;7.796;2022-10-04T07:33:45;9.50;99.90
7360;DHT22;3720;48.274;7.796;2022-10-04T07:36:21;9.50;99.90
7360;DHT22;3720;48.274;7.796;2022-10-04T07:38:57;9.40;99.90
7360;DHT22;3720;48.274;7.796;2022-10-04T07:41:33;9.50;99.90
7360;DHT22;3720;48.274;7.796;2022-10-04T07:44:12;9.50;99.90
7360;DHT22;3720;48.274;7.796;2022-10-04T07:46:50;9.50;99.90
7360;DHT22;3720;48.274;7.796;2022-10-04T07:49:25;9.60;99.90
7360;DHT22;3720;48.274;7.796;2022-10-04T07:52:11;9.60;99.90
7360;DHT22;3720;48.274;7.796;2022-10-04T07:54:52;9.60;99.90
7360;DHT22;3720;48.274;7.796;2022-10-04T07:57:38;9.80;99.90
7360;DHT22;3720;48.274;7.796;2022-10-04T08:00:16;9.90;99.90
7360;DHT22;3720;48.274;7.796;2022-10-04T08:03:04;9.90;99.90
7360;DHT22;3720;48.274;7.796;2022-10-04T08:05:41;10.00;99.90
7360;DHT22;3720;48.274;7.796;2022-10-04T08:08:31;10.00;99.90
7360;DHT22;3720;48.274;7.796;2022-10-04T08:11:15;10.00;99.90
7360;DHT22;3720;48.274;7.796;2022-10-04T08:13:52;10.20;99.90
7360;DHT22;3720;48.274;7.796;2022-10-04T08:16:35;10.40;99.90
7360;DHT22;3720;48.274;7.796;2022-10-04T08:19:31;10.50;99.90
7360;DHT22;3720;48.274;7.796;2022-10-04T08:22:16;10.80;99.90
7360;DHT22;3720;48.274;7.796;2022-10-04T08:25:00;11.00;99.90
7360;DHT22;3720;48.274;7.796;2022-10-04T08:27:50;11.20;99.90
7360;DHT22;3720;48.274;7.796;2022-10-04T08:30:57;11.20;99.90
7360;DHT22;3720;48.274;7.796;2022-10-04T08:33:58;11.20;99.90
7360;DHT22;3720;48.274;7.796;2022-10-04T08:36:41;11.30;99.90
7360;DHT22;3720;48.274;7.796;2022-10-04T08:39:36;11.40;99.90
7360;DHT22;3720;48.274;7.796;2022-10-04T08:42:45;11.50;99.90
7360;DHT22;3720;48.274;7.796;2022-10-04T08:45:42;11.60;99.90
7360;DHT22;3720;48.274;7.796;2022-10-04T08:48:46;11.70;99.90
7360;DHT22;3720;48.274;7.796;2022-10-04T08:58:12;12.10;99.90
7360;DHT22;3720;48.274;7.796;2022-10-04T09:07:07;12.50;99.90
7360;DHT22;3720;48.274;7.796;2022-10-04T09:10:05;12.50;99.90
7360;DHT22;3720;48.274;7.796;2022-10-04T09:12:54;12.60;99.90
7360;DHT22;3720;48.274;7.796;2022-10-04T09:15:49;12.60;99.90
7360;DHT22;3720;48.274;7.796;2022-10-04T09:18:44;12.60;99.90
7360;DHT22;3720;48.274;7.796;2022-10-04T09:21:26;12.60;99.90
7360;DHT22;3720;48.274;7.796;2022-10-04T09:27:14;12.70;99.90
7360;DHT22;3720;48.274;7.796;2022-10-04T09:30:02;12.70;99.90
7360;DHT22;3720;48.274;7.796;2022-10-04T09:32:59;12.80;99.90
7360;DHT22;3720;48.274;7.796;2022-10-04T09:39:17;13.00;99.90
7360;DHT22;3720;48.274;7.796;2022-10-04T09:45:12;13.60;99.90
7360;DHT22;3720;48.274;7.796;2022-10-04T09:47:57;14.00;99.90
7360;DHT22;3720;48.274;7.796;2022-10-04T09:50:57;14.30;99.90
7360;DHT22;3720;48.274;7.796;2022-10-04T09:53:44;14.80;99.90
7360;DHT22;3720;48.274;7.796;2022-10-04T09:59:26;15.40;99.90
7360;DHT22;3720;48.274;7.796;2022-10-04T10:02:28;15.60;99.90
7360;DHT22;3720;48.274;7.796;2022-10-04T10:05:22;15.80;99.90
7360;DHT22;3720;48.274;7.796;2022-10-04T10:08:08;16.10;99.90
7360;DHT22;3720;48.274;7.796;2022-10-04T10:10:51;16.50;99.90
7360;DHT22;3720;48.274;7.796;2022-10-04T10:14:18;16.80;99.90
7360;DHT22;3720;48.274;7.796;2022-10-04T10:17:03;17.20;99.90
7360;DHT22;3720;48.274;7.796;2022-10-04T10:20:00;17.50;99.90
7360;DHT22;3720;48.274;7.796;2022-10-04T10:22:57;17.70;99.90
7360;DHT22;3720;48.274;7.796;2022-10-04T10:25:58;18.00;99.90
7360;DHT22;3720;48.274;7.796;2022-10-04T10:28:45;18.40;99.90
7360;DHT22;3720;48.274;7.796;2022-10-04T10:31:43;18.70;99.90
7360;DHT22;3720;48.274;7.796;2022-10-04T10:34:40;19.10;99.90
7360;DHT22;3720;48.274;7.796;2022-10-04T10:37:21;19.40;99.90
7360;DHT22;3720;48.274;7.796;2022-10-04T10:40:27;19.70;99.90
7360;DHT22;3720;48.274;7.796;2022-10-04T10:43:13;20.00;99.90
7360;DHT22;3720;48.274;7.796;2022-10-04T10:46:02;20.40;99.90
7360;DHT22;3720;48.274;7.796;2022-10-04T10:48:55;20.70;99.90
7360;DHT22;3720;48.274;7.796;2022-10-04T10:58:00;21.30;99.90
7360;DHT22;3720;48.274;7.796;2022-10-04T11:00:47;21.40;99.90
7360;DHT22;3720;48.274;7.796;2022-10-04T11:13:02;21.90;99.90
7360;DHT22;3720;48.274;7.796;2022-10-04T11:18:57;22.40;99.90
7360;DHT22;3720;48.274;7.796;2022-10-04T11:22:11;22.40;99.90
7360;DHT22;3720;48.274;7.796;2022-10-04T11:25:31;22.50;99.90
7360;DHT22;3720;48.274;7.796;2022-10-04T11:28:16;22.80;99.90
7360;DHT22;3720;48.274;7.796;2022-10-04T11:31:37;22.80;99.90
7360;DHT22;3720;48.274;7.796;2022-10-04T11:34:48;22.80;99.90
7360;DHT22;3720;48.274;7.796;2022-10-04T11:37:43;22.90;99.90
7360;DHT22;3720;48.274;7.796;2022-10-04T11:40:29;23.10;99.90
7360;DHT22;3720;48.274;7.796;2022-10-04T11:43:24;23.40;99.90
7360;DHT22;3720;48.274;7.796;2022-10-04T11:46:22;23.20;99.90
7360;DHT22;3720;48.274;7.796;2022-10-04T11:52:24;22.40;99.90
7360;DHT22;3720;48.274;7.796;2022-10-04T11:58:15;22.30;99.90
7360;DHT22;3720;48.274;7.796;2022-10-04T12:07:39;23.00;99.90
7360;DHT22;3720;48.274;7.796;2022-10-04T12:10:24;23.20;99.90
7360;DHT22;3720;48.274;7.796;2022-10-04T12:13:20;23.50;99.90
7360;DHT22;3720;48.274;7.796;2022-10-04T12:16:22;24.00;99.90
7360;DHT22;3720;48.274;7.796;2022-10-04T12:22:17;24.40;99.90
7360;DHT22;3720;48.274;7.796;2022-10-04T12:25:13;24.70;99.90
7360;DHT22;3720;48.274;7.796;2022-10-04T12:28:29;24.70;99.90
7360;DHT22;3720;48.274;7.796;2022-10-04T12:31:15;24.80;99.90
7360;DHT22;3720;48.274;7.796;2022-10-04T12:33:57;25.10;99.90
7360;DHT22;3720;48.274;7.796;2022-10-04T12:36:42;25.10;99.90
7360;DHT22;3720;48.274;7.796;2022-10-04T12:39:21;25.30;99.90
7360;DHT22;3720;48.274;7.796;2022-10-04T12:42:09;25.40;99.90
7360;DHT22;3720;48.274;7.796;2022-10-04T12:44:58;25.10;99.90
7360;DHT22;3720;48.274;7.796;2022-10-04T12:47:44;25.10;99.90
7360;DHT22;3720;48.274;7.796;2022-10-04T12:50:26;25.00;99.90
7360;DHT22;3720;48.274;7.796;2022-10-04T12:53:12;25.00;99.90
7360;DHT22;3720;48.274;7.796;2022-10-04T12:56:06;25.20;99.90
7360;DHT22;3720;48.274;7.796;2022-10-04T12:58:49;25.00;99.90
7360;DHT22;3720;48.274;7.796;2022-10-04T13:01:31;25.10;99.90
7360;DHT22;3720;48.274;7.796;2022-10-04T13:04:19;25.10;99.90
7360;DHT22;3720;48.274;7.796;2022-10-04T13:07:05;25.20;99.90
7360;DHT22;3720;48.274;7.796;2022-10-04T13:09:46;25.30;99.90
7360;DHT22;3720;48.274;7.796;2022-10-04T13:12:33;25.30;99.90
7360;DHT22;3720;48.274;7.796;2022-10-04T13:15:21;25.40;99.90
7360;DHT22;3720;48.274;7.796;2022-10-04T13:18:03;25.50;99.90
7360;DHT22;3720;48.274;7.796;2022-10-04T13:20:48;25.60;99.90
7360;DHT22;3720;48.274;7.796;2022-10-04T13:23:30;25.70;99.90
7360;DHT22;3720;48.274;7.796;2022-10-04T13:26:20;25.90;99.90
7360;DHT22;3720;48.274;7.796;2022-10-04T13:28:59;25.90;99.90
7360;DHT22;3720;48.274;7.796;2022-10-04T13:31:37;25.90;99.90
7360;DHT22;3720;48.274;7.796;2022-10-04T13:34:22;26.00;99.90
7360;DHT22;3720;48.274;7.796;2022-10-04T13:37:17;26.10;99.90
7360;DHT22;3720;48.274;7.796;2022-10-04T13:40:22;25.90;99.90
7360;DHT22;3720;48.274;7.796;2022-10-04T13:43:15;25.90;99.90
7360;DHT22;3720;48.274;7.796;2022-10-04T13:46:05;25.60;99.90
7360;DHT22;3720;48.274;7.796;2022-10-04T13:48:45;25.50;99.90
7360;DHT22;3720;48.274;7.796;2022-10-04T13:51:31;25.60;99.90
7360;DHT22;3720;48.274;7.796;2022-10-04T13:54:17;25.50;99.90
7360;DHT22;3720;48.274;7.796;2022-10-04T13:57:17;25.70;99.90
7360;DHT22;3720;48.274;7.796;2022-10-04T13:59:59;25.90;99.90
7360;DHT22;3720;48.274;7.796;2022-10-04T14:03:08;25.90;99.90
7360;DHT22;3720;48.274;7.796;2022-10-04T14:06:11;25.90;99.90
7360;DHT22;3720;48.274;7.796;2022-10-04T14:09:05;26.00;99.90
7360;DHT22;3720;48.274;7.796;2022-10-04T14:15:28;26.10;99.90
7360;DHT22;3720;48.274;7.796;2022-10-04T14:18:44;26.00;99.90
7360;DHT22;3720;48.274;7.796;2022-10-04T14:21:51;26.10;99.90
7360;DHT22;3720;48.274;7.796;2022-10-04T14:25:12;25.80;99.90
7360;DHT22;3720;48.274;7.796;2022-10-04T14:28:13;25.70;99.90
7360;DHT22;3720;48.274;7.796;2022-10-04T14:30:56;25.60;99.90
7360;DHT22;3720;48.274;7.796;2022-10-04T14:36:59;25.50;99.90
7360;DHT22;3720;48.274;7.796;2022-10-04T14:40:01;25.50;99.90
7360;DHT22;3720;48.274;7.796;2022-10-04T14:42:58;25.60;99.90
7360;DHT22;3720;48.274;7.796;2022-10-04T14:45:39;25.60;99.90
7360;DHT22;3720;48.274;7.796;2022-10-04T14:48:51;25.60;99.90
7360;DHT22;3720;48.274;7.796;2022-10-04T14:51:45;25.50;99.90
7360;DHT22;3720;48.274;7.796;2022-10-04T14:54:34;25.50;99.90
7360;DHT22;3720;48.274;7.796;2022-10-04T14:57:16;25.40;99.90
7360;DHT22;3720;48.274;7.796;2022-10-04T15:00:03;25.20;99.90
7360;DHT22;3720;48.274;7.796;2022-10-04T15:02:55;25.30;99.90
7360;DHT22;3720;48.274;7.796;2022-10-04T15:05:37;25.10;99.90
7360;DHT22;3720;48.274;7.796;2022-10-04T15:08:45;25.00;99.90
7360;DHT22;3720;48.274;7.796;2022-10-04T15:11:39;25.10;99.90
7360;DHT22;3720;48.274;7.796;2022-10-04T15:14:31;25.10;99.90
7360;DHT22;3720;48.274;7.796;2022-10-04T15:17:08;25.10;99.90
7360;DHT22;3720;48.274;7.796;2022-10-04T15:19:46;25.10;99.90
7360;DHT22;3720;48.274;7.796;2022-10-04T15:22:25;25.20;99.90
7360;DHT22;3720;48.274;7.796;2022-10-04T15:24:59;25.10;99.90
7360;DHT22;3720;48.274;7.796;2022-10-04T15:27:44;25.20;99.90
7360;DHT22;3720;48.274;7.796;2022-10-04T15:30:25;25.30;99.90
7360;DHT22;3720;48.274;7.796;2022-10-04T15:33:24;25.30;99.90
7360;DHT22;3720;48.274;7.796;2022-10-04T15:36:37;25.20;99.90
7360;DHT22;3720;48.274;7.796;2022-10-04T15:39:39;25.00;99.90
7360;DHT22;3720;48.274;7.796;2022-10-04T15:42:20;25.00;99.90
7360;DHT22;3720;48.274;7.796;2022-10-04T15:48:09;24.90;99.90
7360;DHT22;3720;48.274;7.796;2022-10-04T15:51:00;24.80;99.90
7360;DHT22;3720;48.274;7.796;2022-10-04T15:53:56;24.70;99.90
7360;DHT22;3720;48.274;7.796;2022-10-04T15:56:43;24.60;99.90
7360;DHT22;3720;48.274;7.796;2022-10-04T15:59:33;24.40;99.90
7360;DHT22;3720;48.274;7.796;2022-10-04T16:02:32;24.30;99.90
7360;DHT22;3720;48.274;7.796;2022-10-04T16:05:18;24.30;99.90
7360;DHT22;3720;48.274;7.796;2022-10-04T16:08:09;24.30;99.90
7360;DHT22;3720;48.274;7.796;2022-10-04T16:10:54;24.30;99.90
7360;DHT22;3720;48.274;7.796;2022-10-04T16:13:44;24.20;99.90
7360;DHT22;3720;48.274;7.796;2022-10-04T16:16:46;24.20;99.90
7360;DHT22;3720;48.274;7.796;2022-10-04T16:19:34;24.10;99.90
7360;DHT22;3720;48.274;7.796;2022-10-04T16:22:14;24.00;99.90
7360;DHT22;3720;48.274;7.796;2022-10-04T16:24:48;23.90;99.90
7360;DHT22;3720;48.274;7.796;2022-10-04T16:27:43;23.80;99.90
7360;DHT22;3720;48.274;7.796;2022-10-04T16:30:28;23.60;99.90
7360;DHT22;3720;48.274;7.796;2022-10-04T16:33:19;23.40;99.90
7360;DHT22;3720;48.274;7.796;2022-10-04T16:36:07;23.10;99.90
7360;DHT22;3720;48.274;7.796;2022-10-04T16:38:46;22.80;99.90
7360;DHT22;3720;48.274;7.796;2022-10-04T16:41:36;22.60;99.90
7360;DHT22;3720;48.274;7.796;2022-10-04T16:44:29;22.40;99.90
7360;DHT22;3720;48.274;7.796;2022-10-04T16:47:16;22.20;99.90
7360;DHT22;3720;48.274;7.796;2022-10-04T16:49:52;22.00;99.90
7360;DHT22;3720;48.274;7.796;2022-10-04T16:52:43;21.70;99.90
7360;DHT22;3720;48.274;7.796;2022-10-04T16:55:35;21.50;99.90
7360;DHT22;3720;48.274;7.796;2022-10-04T16:58:42;21.20;99.90
7360;DHT22;3720;48.274;7.796;2022-10-04T17:01:58;21.10;99.90
7360;DHT22;3720;48.274;7.796;2022-10-04T17:04:51;20.80;99.90
7360;DHT22;3720;48.274;7.796;2022-10-04T17:07:35;20.60;99.90
7360;DHT22;3720;48.274;7.796;2022-10-04T17:10:18;20.30;99.90
7360;DHT22;3720;48.274;7.796;2022-10-04T17:13:14;20.00;99.90
7360;DHT22;3720;48.274;7.796;2022-10-04T17:15:59;19.80;99.90
7360;DHT22;3720;48.274;7.796;2022-10-04T17:18:40;19.50;99.90
7360;DHT22;3720;48.274;7.796;2022-10-04T17:21:26;19.30;99.90
7360;DHT22;3720;48.274;7.796;2022-10-04T17:24:11;19.00;99.90
7360;DHT22;3720;48.274;7.796;2022-10-04T17:27:01;18.80;99.90
7360;DHT22;3720;48.274;7.796;2022-10-04T17:29:47;18.60;99.90
7360;DHT22;3720;48.274;7.796;2022-10-04T17:32:28;18.60;99.90
7360;DHT22;3720;48.274;7.796;2022-10-04T17:35:14;18.50;99.90
7360;DHT22;3720;48.274;7.796;2022-10-04T17:37:52;18.30;99.90
7360;DHT22;3720;48.274;7.796;2022-10-04T17:40:36;18.10;99.90
7360;DHT22;3720;48.274;7.796;2022-10-04T17:43:19;17.90;99.90
7360;DHT22;3720;48.274;7.796;2022-10-04T17:46:10;17.70;99.90
7360;DHT22;3720;48.274;7.796;2022-10-04T17:48:45;17.60;99.90
7360;DHT22;3720;48.274;7.796;2022-10-04T17:51:41;17.60;99.90
7360;DHT22;3720;48.274;7.796;2022-10-04T17:54:39;17.50;99.90
7360;DHT22;3720;48.274;7.796;2022-10-04T17:57:41;17.30;99.90
7360;DHT22;3720;48.274;7.796;2022-10-04T18:00:18;17.20;99.90
7360;DHT22;3720;48.274;7.796;2022-10-04T18:03:11;17.00;99.90
7360;DHT22;3720;48.274;7.796;2022-10-04T18:05:48;16.90;99.90
7360;DHT22;3720;48.274;7.796;2022-10-04T18:08:24;16.90;99.90
7360;DHT22;3720;48.274;7.796;2022-10-04T18:10:59;16.80;99.90
7360;DHT22;3720;48.274;7.796;2022-10-04T18:13:38;16.70;99.90
7360;DHT22;3720;48.274;7.796;2022-10-04T18:16:17;16.60;99.90
7360;DHT22;3720;48.274;7.796;2022-10-04T18:18:54;16.50;99.90
7360;DHT22;3720;48.274;7.796;2022-10-04T18:21:27;16.40;99.90
7360;DHT22;3720;48.274;7.796;2022-10-04T18:24:17;16.30;99.90
7360;DHT22;3720;48.274;7.796;2022-10-04T18:26:56;16.20;99.90
7360;DHT22;3720;48.274;7.796;2022-10-04T18:29:36;16.20;99.90
7360;DHT22;3720;48.274;7.796;2022-10-04T18:32:29;16.00;99.90
7360;DHT22;3720;48.274;7.796;2022-10-04T18:35:22;15.90;99.90
7360;DHT22;3720;48.274;7.796;2022-10-04T18:38:12;15.90;99.90
7360;DHT22;3720;48.274;7.796;2022-10-04T18:40:53;16.00;99.90
7360;DHT22;3720;48.274;7.796;2022-10-04T18:43:28;15.80;99.90
7360;DHT22;3720;48.274;7.796;2022-10-04T18:46:02;15.70;99.90
7360;DHT22;3720;48.274;7.796;2022-10-04T18:48:39;15.70;99.90
7360;DHT22;3720;48.274;7.796;2022-10-04T18:51:22;15.60;99.90
7360;DHT22;3720;48.274;7.796;2022-10-04T18:54:13;15.60;99.90
7360;DHT22;3720;48.274;7.796;2022-10-04T18:56:59;15.50;99.90
7360;DHT22;3720;48.274;7.796;2022-10-04T18:59:46;15.40;99.90
7360;DHT22;3720;48.274;7.796;2022-10-04T19:02:42;15.30;99.90
7360;DHT22;3720;48.274;7.796;2022-10-04T19:05:23;15.20;99.90
7360;DHT22;3720;48.274;7.796;2022-10-04T19:08:06;15.20;99.90
7360;DHT22;3720;48.274;7.796;2022-10-04T19:10:42;15.10;99.90
7360;DHT22;3720;48.274;7.796;2022-10-04T19:13:25;15.00;99.90
7360;DHT22;3720;48.274;7.796;2022-10-04T19:16:14;15.00;99.90
7360;DHT22;3720;48.274;7.796;2022-10-04T19:19:00;15.00;99.90
7360;DHT22;3720;48.274;7.796;2022-10-04T19:21:42;15.00;99.90
7360;DHT22;3720;48.274;7.796;2022-10-04T19:24:33;15.00;99.90